Time;durP1;ratioP1;P1;durP2;ratioP2;P2;SDS_P1;SDS_P2;PMS_P1;PMS_P2;Temp;Humidity;BMP_temperature;BMP_pressure;BME280_temperature;BME280_humidity;BME280_pressure;Samples;Min_cycle;Max_cycle;Signal;HPM_P1;HPM_P2
2022/07/03 00:02:13;;;;;;;1.17;0.50;;;17.50;53.10;;;;;;4919922;28;20030;-75
2022/07/03 00:04:39;;;;;;;1.30;0.77;;;17.40;53.10;;;;;;4936821;28;20489;-75
2022/07/03 00:07:05;;;;;;;3.13;0.60;;;17.30;53.00;;;;;;4931750;28;20477;-76
2022/07/03 00:09:31;;;;;;;1.33;0.60;;;17.40;53.30;;;;;;4935967;28;20054;-76
2022/07/03 00:11:58;;;;;;;1.95;0.55;;;17.30;53.20;;;;;;4917243;29;20081;-76
2022/07/03 00:14:24;;;;;;;1.98;0.40;;;17.20;53.20;;;;;;4933839;28;20039;-75
2022/07/03 00:16:50;;;;;;;4.28;0.93;;;17.20;53.30;;;;;;4934045;28;20031;-75
2022/07/03 00:19:16;;;;;;;4.45;0.50;;;17.10;53.20;;;;;;4911648;28;20046;-76
2022/07/03 00:21:55;;;;;;;1.98;0.90;;;17.10;53.30;;;;;;4916790;28;20096;-75
2022/07/03 00:24:31;;;;;;;4.32;0.90;;;17.10;53.50;;;;;;4937005;28;20034;-75
2022/07/03 00:26:59;;;;;;;1.75;0.70;;;17.00;53.50;;;;;;4905018;28;20027;-75
2022/07/03 00:29:35;;;;;;;3.47;1.02;;;17.00;53.50;;;;;;4920216;29;20181;-75
2022/07/03 00:32:02;;;;;;;2.28;0.85;;;17.00;53.70;;;;;;4926263;28;20505;-74
2022/07/03 00:34:29;;;;;;;3.80;1.02;;;16.90;53.50;;;;;;4938101;28;20253;-75
2022/07/03 00:36:59;;;;;;;3.03;0.82;;;16.90;53.60;;;;;;4922344;28;20612;-75
2022/07/03 00:39:25;;;;;;;1.63;0.50;;;16.90;53.80;;;;;;4917793;29;20473;-74
2022/07/03 00:42:04;;;;;;;2.42;0.50;;;16.90;54.40;;;;;;4940869;28;20054;-75
2022/07/03 00:44:33;;;;;;;1.92;1.00;;;16.90;54.00;;;;;;4937264;28;20142;-75
2022/07/03 00:46:59;;;;;;;2.92;0.70;;;16.90;54.00;;;;;;4938912;28;20323;-75
2022/07/03 00:49:25;;;;;;;4.05;1.00;;;16.90;54.10;;;;;;4928014;28;20091;-75
2022/07/03 00:51:52;;;;;;;3.25;1.17;;;16.90;54.20;;;;;;4935916;28;20332;-75
2022/07/03 00:54:21;;;;;;;2.15;0.80;;;16.90;54.30;;;;;;4921749;28;20047;-75
2022/07/03 00:56:52;;;;;;;3.92;1.08;;;16.90;54.40;;;;;;4917270;28;20078;-75
2022/07/03 00:59:18;;;;;;;3.15;0.70;;;16.90;55.10;;;;;;4920980;29;20027;-75
2022/07/03 01:01:46;;;;;;;3.40;0.88;;;16.90;54.50;;;;;;4932376;28;20067;-75
2022/07/03 01:04:15;;;;;;;3.25;0.80;;;16.90;54.60;;;;;;4918345;29;20242;-74
2022/07/03 01:07:13;;;;;;;4.85;0.80;;;16.90;54.70;;;;;;4937412;28;20541;-75
2022/07/03 01:10:04;;;;;;;3.35;0.93;;;16.90;54.80;;;;;;4905567;28;20556;-75
2022/07/03 01:12:38;;;;;;;2.70;0.90;;;16.90;54.90;;;;;;4931682;28;20039;-74
2022/07/03 01:15:22;;;;;;;2.60;0.90;;;16.80;54.60;;;;;;4939117;28;20032;-74
2022/07/03 01:18:02;;;;;;;2.17;0.98;;;16.90;55.00;;;;;;4936506;28;20352;-75
2022/07/03 01:20:33;;;;;;;3.35;1.42;;;16.80;54.80;;;;;;4913642;28;20040;-75
2022/07/03 01:23:00;;;;;;;2.03;1.13;;;16.80;54.90;;;;;;4944042;28;20027;-74
2022/07/03 01:25:39;;;;;;;1.90;0.70;;;16.80;54.90;;;;;;4942579;28;20035;-75
2022/07/03 01:28:11;;;;;;;3.10;0.75;;;16.80;55.00;;;;;;4940250;28;20041;-75
2022/07/03 01:30:38;;;;;;;3.42;0.90;;;16.80;55.00;;;;;;4941349;28;20034;-75
2022/07/03 01:33:10;;;;;;;3.45;1.20;;;16.80;55.20;;;;;;4924005;28;20370;-75
2022/07/03 01:35:39;;;;;;;2.47;0.63;;;16.80;55.30;;;;;;4923841;29;20406;-76
2022/07/03 01:38:10;;;;;;;4.80;0.98;;;16.80;55.40;;;;;;4938545;28;20035;-75
2022/07/03 01:40:38;;;;;;;1.95;0.70;;;16.80;55.40;;;;;;4939800;28;20514;-75
2022/07/03 01:43:07;;;;;;;3.88;0.98;;;16.80;55.40;;;;;;4946184;28;20046;-75
2022/07/03 01:45:38;;;;;;;1.77;0.88;;;16.80;55.60;;;;;;4940463;28;20042;-75
2022/07/03 01:48:06;;;;;;;2.83;0.93;;;16.80;55.60;;;;;;4927312;29;20089;-74
2022/07/03 01:50:33;;;;;;;1.92;0.70;;;16.80;55.60;;;;;;4947446;28;20039;-75
2022/07/03 01:53:02;;;;;;;2.33;0.70;;;16.70;55.60;;;;;;4950994;28;20039;-74
2022/07/03 01:55:32;;;;;;;5.68;2.08;;;16.70;55.70;;;;;;4955583;28;20031;-75
2022/07/03 01:57:58;;;;;;;2.53;0.70;;;16.70;55.70;;;;;;4954794;28;20046;-75
2022/07/03 02:00:25;;;;;;;2.75;0.60;;;16.70;55.80;;;;;;4946251;28;20490;-76
2022/07/03 02:03:02;;;;;;;4.15;0.65;;;16.70;55.80;;;;;;4949719;28;20026;-75
2022/07/03 02:05:46;;;;;;;3.05;0.80;;;16.70;56.00;;;;;;4945749;28;20039;-75
2022/07/03 02:08:42;;;;;;;4.70;1.50;;;16.70;56.10;;;;;;4950090;28;20040;-75
2022/07/03 02:11:19;;;;;;;3.15;1.00;;;16.70;56.10;;;;;;4942555;28;20189;-74
2022/07/03 02:14:04;;;;;;;3.75;0.80;;;16.70;56.10;;;;;;4948040;28;20047;-75
2022/07/03 02:16:42;;;;;;;5.15;1.92;;;16.70;56.00;;;;;;4947050;28;20038;-74
2022/07/03 02:19:11;;;;;;;2.75;1.00;;;16.70;56.10;;;;;;4943099;28;20367;-75
2022/07/03 02:21:44;;;;;;;3.13;0.98;;;16.70;56.10;;;;;;4944665;28;20036;-75
2022/07/03 02:24:13;;;;;;;;;;;16.70;56.20;;;;;;4948756;28;20059;-74
2022/07/03 02:26:41;;;;;;;2.63;0.75;;;16.70;56.10;;;;;;4946748;28;19938;-75
2022/07/03 02:29:12;;;;;;;4.75;0.80;;;16.70;56.00;;;;;;4919232;29;20039;-75
2022/07/03 02:31:42;;;;;;;3.03;0.80;;;16.80;56.30;;;;;;4946758;28;20126;-74
2022/07/03 02:34:13;;;;;;;4.32;1.25;;;16.70;56.20;;;;;;4950637;28;20051;-74
2022/07/03 02:36:43;;;;;;;3.33;0.88;;;16.70;56.20;;;;;;4954618;28;20397;-75
2022/07/03 02:39:19;;;;;;;1.77;0.60;;;16.70;56.30;;;;;;4946504;28;20032;-74
2022/07/03 02:42:03;;;;;;;1.58;0.50;;;16.70;56.50;;;;;;4947845;28;20059;-74
2022/07/03 02:44:53;;;;;;;3.22;1.27;;;16.80;56.80;;;;;;4946093;28;20055;-75
2022/07/03 02:47:57;;;;;;;2.25;1.17;;;16.70;56.60;;;;;;4926011;29;20032;-75
2022/07/03 02:50:27;;;;;;;2.17;1.25;;;16.70;56.60;;;;;;4941103;28;20130;-75
2022/07/03 02:53:01;;;;;;;1.20;0.73;;;16.70;56.50;;;;;;4933062;28;20031;-75
2022/07/03 02:55:44;;;;;;;2.53;1.45;;;16.70;56.60;;;;;;4926054;29;20090;-75
2022/07/03 02:58:33;;;;;;;3.35;0.75;;;16.70;57.40;;;;;;4920224;29;20070;-75
2022/07/03 03:01:24;;;;;;;1.88;0.68;;;16.70;56.90;;;;;;4926139;29;20041;-74
2022/07/03 03:04:12;;;;;;;1.48;0.47;;;16.70;57.00;;;;;;4921024;29;20302;-75
2022/07/03 03:06:44;;;;;;;1.85;0.90;;;16.70;57.00;;;;;;4937395;28;20034;-75
2022/07/03 03:09:19;;;;;;;2.05;0.65;;;16.70;56.90;;;;;;4947263;28;20031;-76
2022/07/03 03:11:45;;;;;;;2.53;0.70;;;16.70;57.10;;;;;;4910939;29;20020;-75
2022/07/03 03:14:14;;;;;;;1.58;0.52;;;16.70;57.10;;;;;;4924579;29;20050;-74
2022/07/03 03:16:53;;;;;;;2.95;0.80;;;16.70;57.20;;;;;;4947630;28;20035;-74
2022/07/03 03:19:23;;;;;;;2.63;0.55;;;16.60;57.20;;;;;;4948613;28;20089;-74
2022/07/03 03:22:16;;;;;;;3.42;0.98;;;16.70;57.40;;;;;;4949202;28;20023;-75
2022/07/03 03:24:42;;;;;;;1.08;0.68;;;16.60;58.00;;;;;;4926394;28;20549;-76
2022/07/03 03:27:09;;;;;;;1.30;0.55;;;16.60;57.20;;;;;;4942283;28;20553;-75
2022/07/03 03:29:35;;;;;;;1.70;0.93;;;16.60;57.30;;;;;;4949325;28;20035;-74
2022/07/03 03:32:00;;;;;;;2.03;0.65;;;16.60;57.40;;;;;;4921231;28;20184;-74
2022/07/03 03:34:27;;;;;;;3.05;0.73;;;16.60;57.50;;;;;;4931670;29;20045;-74
2022/07/03 03:36:53;;;;;;;2.00;0.60;;;16.60;58.20;;;;;;4939127;28;20028;-75
2022/07/03 03:39:19;;;;;;;2.38;0.80;;;16.60;57.70;;;;;;4929699;29;20065;-75
2022/07/03 03:41:45;;;;;;;0.93;0.50;;;16.60;57.80;;;;;;4921377;29;20095;-74
2022/07/03 03:44:11;;;;;;;1.55;0.55;;;16.50;57.70;;;;;;4924378;29;20047;-75
2022/07/03 03:46:37;;;;;;;1.52;0.60;;;16.50;57.80;;;;;;4946772;28;20039;-74
2022/07/03 03:49:03;;;;;;;3.35;1.10;;;16.60;58.00;;;;;;4944065;28;20385;-75
2022/07/03 03:51:29;;;;;;;2.00;0.70;;;16.50;57.90;;;;;;4938227;28;20645;-74
2022/07/03 03:53:55;;;;;;;2.55;0.88;;;16.60;58.20;;;;;;4943662;28;20055;-74
2022/07/03 03:56:20;;;;;;;1.88;0.60;;;16.50;58.10;;;;;;4933481;28;20066;-74
2022/07/03 03:58:46;;;;;;;2.05;0.93;;;16.60;58.40;;;;;;4942253;28;20286;-74
2022/07/03 04:01:12;;;;;;;1.88;0.73;;;16.50;58.20;;;;;;4926991;29;20062;-74
2022/07/03 04:03:40;;;;;;;1.40;0.50;;;16.50;58.30;;;;;;4925658;28;20031;-75
2022/07/03 04:06:06;;;;;;;4.63;0.90;;;16.50;58.30;;;;;;4932004;28;20094;-75
2022/07/03 04:08:32;;;;;;;1.73;0.60;;;16.50;58.30;;;;;;4946259;28;20028;-74
2022/07/03 04:10:58;;;;;;;1.98;0.57;;;16.60;58.60;;;;;;4940440;28;20083;-75
2022/07/03 04:13:24;;;;;;;2.72;0.68;;;16.60;58.70;;;;;;4933446;28;20050;-75
2022/07/03 04:15:52;;;;;;;1.20;0.70;;;16.60;58.70;;;;;;4939015;28;20019;-75
2022/07/03 04:18:18;;;;;;;1.63;0.80;;;16.60;58.80;;;;;;4934763;28;20094;-75
2022/07/03 04:20:44;;;;;;;2.50;0.70;;;16.60;58.80;;;;;;4931106;28;20273;-75
2022/07/03 04:23:10;;;;;;;2.58;0.70;;;16.60;58.80;;;;;;4928711;29;20041;-77
2022/07/03 04:25:36;;;;;;;1.85;0.70;;;16.60;58.80;;;;;;4919512;29;20078;-75
2022/07/03 04:28:03;;;;;;;1.55;0.70;;;16.60;58.90;;;;;;4939678;28;20438;-74
2022/07/03 04:30:29;;;;;;;2.92;0.68;;;16.60;58.90;;;;;;4919725;29;20082;-74
2022/07/03 04:32:55;;;;;;;1.92;0.70;;;16.70;59.10;;;;;;4941981;28;20462;-75
2022/07/03 04:35:21;;;;;;;3.03;1.45;;;16.70;59.10;;;;;;4947367;28;20461;-75
2022/07/03 04:37:47;;;;;;;1.15;0.50;;;16.70;59.10;;;;;;4947800;28;20047;-78
2022/07/03 04:40:13;;;;;;;1.92;0.77;;;16.70;59.70;;;;;;4933446;28;20050;-76
2022/07/03 04:42:39;;;;;;;2.08;0.77;;;16.70;59.20;;;;;;4916953;28;20074;-76
2022/07/03 04:45:06;;;;;;;1.17;0.70;;;16.70;59.20;;;;;;4944163;28;20644;-75
2022/07/03 04:47:31;;;;;;;2.30;1.02;;;16.70;59.30;;;;;;4915952;29;20351;-75
2022/07/03 04:49:57;;;;;;;2.88;0.73;;;16.70;59.30;;;;;;4945922;28;20059;-75
2022/07/03 04:52:23;;;;;;;2.55;0.75;;;16.70;59.40;;;;;;4940570;28;20030;-75
2022/07/03 04:54:49;;;;;;;2.88;0.93;;;16.70;59.80;;;;;;4937748;28;20046;-75
2022/07/03 04:57:15;;;;;;;1.95;0.70;;;16.70;59.50;;;;;;4937825;28;20217;-74
2022/07/03 04:59:41;;;;;;;1.90;0.60;;;16.70;59.50;;;;;;4942172;28;20031;-74
2022/07/03 05:02:07;;;;;;;1.15;0.60;;;16.70;59.50;;;;;;4920518;29;20055;-75
2022/07/03 05:04:33;;;;;;;6.82;2.15;;;16.80;59.70;;;;;;4918610;28;20035;-75
2022/07/03 05:06:59;;;;;;;1.25;0.70;;;16.80;59.70;;;;;;4933858;28;20082;-75
2022/07/03 05:09:25;;;;;;;2.13;0.88;;;16.80;59.70;;;;;;4945279;28;20515;-75
2022/07/03 05:11:51;;;;;;;2.35;1.17;;;16.90;59.80;;;;;;4946003;28;20104;-74
2022/07/03 05:14:17;;;;;;;2.17;1.15;;;16.90;59.80;;;;;;4935155;28;20051;-74
2022/07/03 05:16:43;;;;;;;2.22;0.75;;;16.90;59.70;;;;;;4941992;28;20509;-76
2022/07/03 05:19:09;;;;;;;1.50;0.70;;;17.00;59.80;;;;;;4945942;28;20398;-76
2022/07/03 05:21:35;;;;;;;1.38;0.68;;;17.00;59.70;;;;;;4921807;28;20236;-75
2022/07/03 05:24:01;;;;;;;3.17;0.73;;;17.10;59.90;;;;;;4944073;28;20035;-75
2022/07/03 05:26:27;;;;;;;3.03;0.85;;;17.10;59.80;;;;;;4920493;29;20055;-74
2022/07/03 05:28:53;;;;;;;2.83;1.08;;;17.20;59.90;;;;;;4928694;28;20565;-76
2022/07/03 05:31:19;;;;;;;2.67;0.95;;;17.20;59.90;;;;;;4919205;28;20030;-77
2022/07/03 05:33:45;;;;;;;3.30;0.65;;;17.20;59.90;;;;;;4938097;28;20083;-76
2022/07/03 05:36:11;;;;;;;1.98;0.80;;;17.20;59.80;;;;;;4904062;28;20035;-76
2022/07/03 05:41:21;;;;;;;3.53;0.73;;;17.30;59.90;;;;;;4921843;28;20054;-75
2022/07/03 05:43:47;;;;;;;1.25;0.57;;;17.30;59.90;;;;;;4939455;28;20051;-79
2022/07/03 05:46:13;;;;;;;2.33;0.70;;;17.40;60.10;;;;;;4946794;28;20042;-76
2022/07/03 05:48:39;;;;;;;3.88;1.25;;;17.40;60.00;;;;;;4909429;29;20513;-79
2022/07/03 05:51:05;;;;;;;3.22;0.70;;;17.40;59.90;;;;;;4935932;28;20034;-75
2022/07/03 05:53:31;;;;;;;3.13;0.90;;;17.50;60.00;;;;;;4920410;29;20043;-76
2022/07/03 05:55:58;;;;;;;3.08;1.33;;;17.50;60.00;;;;;;4924903;28;20127;-76
2022/07/03 05:58:24;;;;;;;2.70;0.60;;;17.60;60.10;;;;;;4941945;28;20039;-77
2022/07/03 06:00:50;;;;;;;1.75;0.70;;;17.60;60.00;;;;;;4937323;28;20027;-78
2022/07/03 06:03:16;;;;;;;1.85;0.70;;;17.70;60.10;;;;;;4938644;28;20461;-76
2022/07/03 06:05:45;;;;;;;5.55;2.00;;;17.80;60.20;;;;;;4923923;29;20069;-78
2022/07/03 06:08:11;;;;;;;1.90;0.90;;;17.90;60.10;;;;;;4945243;28;20094;-78
2022/07/03 06:10:37;;;;;;;1.88;1.02;;;18.10;60.20;;;;;;4938706;28;20390;-75
2022/07/03 06:13:03;;;;;;;4.47;1.38;;;18.30;60.20;;;;;;4919647;29;20051;-76
2022/07/03 06:15:28;;;;;;;5.20;1.20;;;18.50;60.20;;;;;;4926528;29;20031;-77
2022/07/03 06:17:54;;;;;;;1.92;0.82;;;18.80;60.30;;;;;;4943574;28;20106;-77
2022/07/03 06:20:20;;;;;;;1.63;1.08;;;19.00;60.80;;;;;;4935935;28;20442;-78
2022/07/03 06:22:46;;;;;;;1.00;0.60;;;19.30;60.30;;;;;;4929277;29;20036;-77
2022/07/03 06:25:12;;;;;;;2.15;0.75;;;19.50;60.20;;;;;;4927952;29;20039;-76
2022/07/03 06:27:38;;;;;;;1.90;0.77;;;19.70;60.60;;;;;;4919644;28;20409;-75
2022/07/03 06:30:05;;;;;;;2.35;0.90;;;19.90;60.10;;;;;;4943555;28;20398;-76
2022/07/03 06:32:31;;;;;;;4.13;0.90;;;20.00;60.00;;;;;;4918982;29;20040;-76
2022/07/03 06:34:57;;;;;;;3.05;0.60;;;20.10;60.10;;;;;;4927774;28;20083;-76
2022/07/03 06:37:23;;;;;;;4.75;1.13;;;20.20;60.00;;;;;;4943157;28;20126;-75
2022/07/03 06:39:48;;;;;;;1.60;0.85;;;20.30;60.00;;;;;;4939799;28;20027;-77
2022/07/03 06:42:14;;;;;;;2.25;0.50;;;20.30;59.80;;;;;;4907193;29;20035;-76
2022/07/03 06:44:41;;;;;;;2.17;0.70;;;20.50;60.00;;;;;;4937698;28;20058;-77
2022/07/03 06:47:07;;;;;;;2.22;0.85;;;20.60;59.80;;;;;;4909495;28;20032;-76
2022/07/03 06:49:34;;;;;;;3.55;1.25;;;20.70;59.80;;;;;;4939174;28;20023;-76
2022/07/03 06:52:01;;;;;;;2.22;0.73;;;20.80;59.70;;;;;;4940626;28;20470;-75
2022/07/03 06:54:26;;;;;;;3.25;1.23;;;21.00;59.80;;;;;;4946073;29;20378;-76
2022/07/03 06:56:53;;;;;;;1.33;0.40;;;21.20;59.60;;;;;;4912180;28;20038;-74
2022/07/03 06:59:19;;;;;;;2.47;1.10;;;21.50;59.60;;;;;;4937852;28;20031;-80
2022/07/03 07:01:47;;;;;;;5.78;1.65;;;21.80;59.40;;;;;;4917362;28;20027;-76
2022/07/03 07:04:12;;;;;;;1.48;0.50;;;22.10;59.90;;;;;;4936329;28;20146;-76
2022/07/03 07:06:38;;;;;;;2.28;0.50;;;22.40;59.00;;;;;;4926488;29;20509;-75
2022/07/03 07:09:04;;;;;;;1.50;0.60;;;22.50;58.70;;;;;;4937103;28;20278;-76
2022/07/03 07:11:30;;;;;;;2.55;0.77;;;22.60;58.80;;;;;;4935709;28;20024;-75
2022/07/03 07:13:56;;;;;;;1.52;0.77;;;22.60;58.70;;;;;;4942612;28;20184;-75
2022/07/03 07:16:22;;;;;;;1.50;0.68;;;22.60;58.70;;;;;;4935453;28;21265;-76
2022/07/03 07:18:48;;;;;;;4.53;0.90;;;22.60;58.60;;;;;;4940413;28;20118;-76
2022/07/03 07:21:14;;;;;;;3.33;1.27;;;22.60;58.60;;;;;;4915262;29;20035;-75
2022/07/03 07:23:40;;;;;;;3.53;1.10;;;22.70;58.80;;;;;;4947597;28;20035;-75
2022/07/03 07:26:07;;;;;;;1.92;0.70;;;22.80;58.70;;;;;;4945713;29;20477;-77
2022/07/03 07:28:34;;;;;;;2.10;0.95;;;22.90;58.60;;;;;;4945759;28;20031;-75
2022/07/03 07:31:01;;;;;;;3.20;0.75;;;22.90;58.40;;;;;;4932680;29;20245;-76
2022/07/03 07:33:30;;;;;;;2.75;1.00;;;22.90;58.40;;;;;;4961142;28;20039;-76
2022/07/03 07:35:56;;;;;;;4.03;1.00;;;22.90;58.50;;;;;;4956935;28;20621;-76
2022/07/03 07:38:22;;;;;;;2.55;0.98;;;22.90;58.40;;;;;;4933633;28;20035;-76
2022/07/03 07:40:48;;;;;;;2.47;0.95;;;22.90;58.30;;;;;;4957746;28;20036;-76
2022/07/03 07:43:14;;;;;;;1.77;0.85;;;23.00;58.40;;;;;;4943584;29;20051;-76
2022/07/03 07:45:40;;;;;;;2.80;1.00;;;23.00;58.30;;;;;;4949090;29;20039;-76
2022/07/03 07:48:06;;;;;;;5.13;1.20;;;23.00;58.20;;;;;;4944151;29;20092;-75
2022/07/03 07:50:32;;;;;;;6.18;1.08;;;23.00;58.00;;;;;;4918441;29;20138;-76
2022/07/03 07:52:58;;;;;;;2.83;1.02;;;23.00;58.00;;;;;;4941897;28;20483;-76
2022/07/03 07:55:25;;;;;;;2.88;1.10;;;23.00;58.00;;;;;;4945777;29;20264;-76
2022/07/03 07:57:51;;;;;;;7.32;1.80;;;23.00;58.10;;;;;;4945119;29;20035;-75
2022/07/03 08:00:18;;;;;;;5.20;1.15;;;23.00;58.10;;;;;;4938996;29;20039;-74
2022/07/03 08:05:36;;;;;;;4.00;1.10;;;23.10;58.10;;;;;;4919410;29;20346;-75
2022/07/03 08:08:05;;;;;;;;;;;23.10;57.90;;;;;;4916338;29;20108;-75
2022/07/03 08:10:36;;;;;;;2.30;0.80;;;23.10;57.90;;;;;;4934166;29;20323;-75
2022/07/03 08:13:02;;;;;;;2.78;0.93;;;23.10;57.90;;;;;;4926565;29;20035;-75
2022/07/03 08:15:28;;;;;;;4.53;1.52;;;23.10;58.10;;;;;;4920044;29;20050;-75
2022/07/03 08:17:54;;;;;;;7.07;1.30;;;23.20;57.90;;;;;;4906419;29;20461;-76
2022/07/03 08:20:20;;;;;;;5.28;1.45;;;23.30;58.10;;;;;;4941988;29;20031;-75
2022/07/03 08:22:46;;;;;;;2.00;1.00;;;23.50;58.00;;;;;;4927925;29;20039;-75
2022/07/03 08:25:12;;;;;;;3.88;1.35;;;23.80;58.00;;;;;;4910881;29;20042;-76
2022/07/03 08:27:38;;;;;;;3.20;1.00;;;24.20;58.00;;;;;;4946193;28;20381;-76
2022/07/03 08:30:05;;;;;;;3.38;1.00;;;24.50;57.80;;;;;;4932255;29;20549;-75
2022/07/03 08:32:30;;;;;;;4.60;1.02;;;24.80;57.70;;;;;;4934373;29;20031;-77
2022/07/03 08:34:57;;;;;;;3.35;0.95;;;25.00;57.70;;;;;;4941691;29;20074;-75
2022/07/03 08:37:23;;;;;;;2.13;0.88;;;25.00;57.40;;;;;;4946585;28;20161;-75
2022/07/03 08:39:49;;;;;;;2.65;0.90;;;25.10;57.30;;;;;;4941978;28;20110;-74
2022/07/03 08:42:16;;;;;;;2.55;1.20;;;25.30;57.20;;;;;;4927763;29;20031;-75
2022/07/03 08:44:43;;;;;;;4.03;1.23;;;25.40;56.90;;;;;;4924395;29;20105;-76
2022/07/03 08:47:11;;;;;;;4.70;1.50;;;25.50;56.60;;;;;;4949755;29;20035;-76
2022/07/03 08:49:38;;;;;;;4.22;1.73;;;25.50;56.50;;;;;;4945532;29;20043;-74
2022/07/03 08:52:07;;;;;;;3.08;1.08;;;25.50;56.50;;;;;;4951214;28;20046;-76
2022/07/03 08:54:33;;;;;;;5.60;1.70;;;25.40;56.40;;;;;;4950480;29;20039;-79
2022/07/03 08:57:03;;;;;;;2.55;1.17;;;25.30;56.50;;;;;;4950112;29;20027;-81
2022/07/03 08:59:37;;;;;;;4.05;0.95;;;25.20;56.60;;;;;;4918357;29;20035;-77
2022/07/03 09:02:04;;;;;;;3.50;0.85;;;25.00;56.80;;;;;;4950226;29;20118;-77
2022/07/03 09:04:31;;;;;;;3.88;1.77;;;24.80;56.90;;;;;;4930064;29;20081;-77
2022/07/03 09:06:59;;;;;;;2.67;1.27;;;24.60;56.80;;;;;;4951762;28;20066;-79
2022/07/03 09:09:25;;;;;;;3.95;1.23;;;24.50;56.80;;;;;;4948040;29;20074;-77
2022/07/03 09:11:51;;;;;;;3.63;1.10;;;24.40;56.80;;;;;;4928765;28;20133;-80
2022/07/03 09:14:18;;;;;;;9.68;1.45;;;24.30;56.80;;;;;;4921589;29;20044;-81
2022/07/03 09:16:45;;;;;;;3.67;1.20;;;24.30;57.00;;;;;;4931604;28;20093;-77
2022/07/03 09:19:11;;;;;;;2.05;0.90;;;24.30;57.10;;;;;;4950266;28;20035;-77
2022/07/03 09:21:41;;;;;;;5.18;1.38;;;24.30;57.20;;;;;;4951057;28;20031;-77
2022/07/03 09:24:09;;;;;;;4.68;1.40;;;24.30;57.30;;;;;;4923739;29;20055;-77
2022/07/03 09:26:35;;;;;;;5.60;1.65;;;24.40;57.30;;;;;;4950805;28;20046;-80
2022/07/03 09:29:03;;;;;;;6.82;1.10;;;24.40;57.10;;;;;;4948641;29;20053;-78
2022/07/03 09:31:30;;;;;;;6.13;1.45;;;24.50;57.20;;;;;;4949274;29;20038;-77
2022/07/03 09:34:00;;;;;;;3.47;1.20;;;24.50;57.20;;;;;;4920070;29;20054;-77
2022/07/03 09:36:51;;;;;;;3.30;1.30;;;24.60;57.40;;;;;;4947756;29;20043;-79
2022/07/03 09:39:23;;;;;;;10.68;2.58;;;24.70;57.50;;;;;;4938168;28;20039;-75
2022/07/03 09:41:50;;;;;;;;;;;24.80;57.50;;;;;;4947586;29;20439;-80
2022/07/03 09:44:36;;;;;;;5.60;1.70;;;24.90;57.60;;;;;;4908764;29;19951;-79
2022/07/03 09:47:16;;;;;;;5.30;1.52;;;24.90;57.60;;;;;;4940005;29;20045;-81
2022/07/03 09:49:46;;;;;;;5.10;1.63;;;24.90;57.70;;;;;;4930250;29;20046;-78
2022/07/03 09:52:37;;;;;;;3.33;1.23;;;25.00;57.80;;;;;;4939044;29;20032;-78
2022/07/03 09:55:09;;;;;;;3.97;1.95;;;25.10;57.60;;;;;;4929168;29;20143;-78
2022/07/03 09:57:37;;;;;;;6.25;1.52;;;25.20;57.20;;;;;;4912669;29;20642;-77
2022/07/03 10:00:15;;;;;;;4.95;1.63;;;25.40;56.80;;;;;;4923336;29;20043;-78
2022/07/03 10:03:03;;;;;;;7.50;1.55;;;25.60;56.30;;;;;;4924844;29;20485;-79
2022/07/03 10:05:34;;;;;;;9.15;2.65;;;25.70;55.90;;;;;;4943857;29;20031;-80
2022/07/03 10:08:06;;;;;;;3.67;1.10;;;25.70;55.70;;;;;;4929122;29;20129;-78
2022/07/03 10:10:34;;;;;;;10.03;1.43;;;25.70;55.70;;;;;;4928856;29;20051;-79
2022/07/03 10:13:01;;;;;;;5.90;1.33;;;25.60;55.70;;;;;;4941482;29;20035;-78
2022/07/03 10:15:29;;;;;;;7.97;1.80;;;25.40;55.70;;;;;;4923818;29;20069;-78
2022/07/03 10:17:57;;;;;;;4.40;1.88;;;25.30;55.90;;;;;;4912243;29;20039;-78
2022/07/03 10:20:25;;;;;;;5.80;1.70;;;25.20;56.00;;;;;;4923251;29;20054;-78
2022/07/03 10:22:52;;;;;;;7.10;3.05;;;25.20;56.10;;;;;;4917465;29;20533;-78
2022/07/03 10:25:18;;;;;;;6.82;1.83;;;25.20;56.60;;;;;;4920584;29;20027;-80
2022/07/03 10:27:49;;;;;;;9.95;3.22;;;25.30;56.00;;;;;;4912656;29;20043;-79
2022/07/03 10:30:16;;;;;;;5.20;2.13;;;25.30;55.80;;;;;;4934152;29;20039;-79
2022/07/03 10:32:46;;;;;;;6.40;2.15;;;25.40;55.70;;;;;;4916822;29;20067;-82
2022/07/03 10:35:15;;;;;;;8.70;2.33;;;25.50;55.60;;;;;;4946643;29;20240;-78
2022/07/03 10:37:51;;;;;;;4.78;1.80;;;25.50;55.30;;;;;;4923998;29;20054;-75
2022/07/03 10:46:17;;;;;;;6.97;2.60;;;25.50;55.00;;;;;;4928947;29;20166;-76
2022/07/03 10:48:55;;;;;;;3.60;2.47;;;25.60;55.10;;;;;;4929365;29;20031;-77
2022/07/03 10:51:22;;;;;;;4.63;1.90;;;25.60;54.80;;;;;;4922165;28;20020;-78
2022/07/03 10:53:48;;;;;;;6.57;2.20;;;25.70;54.70;;;;;;4939739;29;20062;-77
2022/07/03 10:56:17;;;;;;;2.20;1.73;;;25.70;54.50;;;;;;4934247;29;20517;-77
2022/07/03 10:59:00;;;;;;;2.42;1.88;;;25.80;54.40;;;;;;4936185;29;20464;-76
2022/07/03 11:01:30;;;;;;;6.38;2.53;;;26.00;54.20;;;;;;4933821;29;20102;-77
2022/07/03 11:04:01;;;;;;;4.88;2.28;;;26.10;54.00;;;;;;4934856;29;20039;-76
2022/07/03 11:06:46;;;;;;;3.42;2.17;;;26.30;53.80;;;;;;4934513;29;20082;-76
2022/07/03 11:09:14;;;;;;;4.82;1.67;;;26.50;53.40;;;;;;4932675;29;20077;-79
2022/07/03 11:11:56;;;;;;;3.20;1.20;;;26.70;53.10;;;;;;4917484;29;20027;-75
2022/07/03 11:14:24;;;;;;;3.63;1.80;;;26.90;52.60;;;;;;4933804;29;20371;-77
2022/07/03 11:17:20;;;;;;;4.82;2.08;;;27.00;52.30;;;;;;4933556;29;20024;-78
2022/07/03 11:22:58;;;;;;;4.78;1.65;;;27.10;51.70;;;;;;4913857;29;20031;-78
2022/07/03 11:25:25;;;;;;;3.15;1.33;;;26.90;51.50;;;;;;4943667;29;20023;-79
2022/07/03 11:27:52;;;;;;;4.15;1.70;;;26.70;51.90;;;;;;4908391;29;20035;-78
2022/07/03 11:30:21;;;;;;;2.55;0.93;;;26.50;52.00;;;;;;4939359;29;20485;-78
2022/07/03 11:32:49;;;;;;;1.05;0.93;;;26.30;52.10;;;;;;4934332;29;20038;-78
2022/07/03 11:35:42;;;;;;;1.15;0.70;;;26.20;52.10;;;;;;4920269;29;20054;-78
2022/07/03 11:38:08;;;;;;;0.57;0.57;;;26.10;51.80;;;;;;4922198;29;20441;-77
2022/07/03 11:40:40;;;;;;;1.42;0.60;;;26.00;52.00;;;;;;4946957;29;20086;-79
2022/07/03 11:43:06;;;;;;;0.73;0.60;;;26.00;51.80;;;;;;4935861;29;20040;-83
2022/07/03 11:45:33;;;;;;;1.05;0.57;;;25.90;51.80;;;;;;4943010;29;20042;-83
2022/07/03 11:47:59;;;;;;;0.60;0.47;;;25.80;51.70;;;;;;4944028;29;20321;-81
2022/07/03 11:50:40;;;;;;;1.42;0.40;;;25.70;51.70;;;;;;4950162;29;20046;-86
2022/07/03 11:53:36;;;;;;;1.15;0.80;;;25.70;51.50;;;;;;4937194;29;20039;-81
2022/07/03 11:56:08;;;;;;;2.67;0.40;;;25.50;51.30;;;;;;4903743;29;20141;-82
2022/07/03 11:58:45;;;;;;;1.20;0.30;;;25.50;51.50;;;;;;4937615;29;20042;-82
2022/07/03 12:01:27;;;;;;;0.90;0.40;;;25.40;51.30;;;;;;4939299;29;20027;-79
2022/07/03 12:03:54;;;;;;;0.50;0.30;;;25.40;51.00;;;;;;4936654;28;20795;-78
2022/07/03 12:06:20;;;;;;;0.40;0.30;;;25.50;51.10;;;;;;4938193;29;20054;-80
2022/07/03 12:08:46;;;;;;;1.05;0.40;;;25.60;50.80;;;;;;4922801;29;20042;-79
2022/07/03 12:11:16;;;;;;;0.45;0.40;;;25.70;50.50;;;;;;4921352;29;20032;-79
2022/07/03 12:13:43;;;;;;;0.38;0.30;;;25.80;50.00;;;;;;4938383;29;20524;-79
2022/07/03 12:16:13;;;;;;;1.85;0.47;;;26.00;49.90;;;;;;4923734;29;20099;-79
2022/07/03 12:18:54;;;;;;;1.35;0.30;;;26.20;49.40;;;;;;4938696;29;20066;-80
2022/07/03 12:21:22;;;;;;;0.38;0.30;;;26.40;49.00;;;;;;4938020;29;20035;-79
2022/07/03 12:23:51;;;;;;;1.80;0.60;;;26.50;48.70;;;;;;4938728;29;20548;-78
2022/07/03 12:26:31;;;;;;;1.25;0.47;;;26.60;48.40;;;;;;4930614;29;20371;-80
2022/07/03 12:28:59;;;;;;;0.73;0.38;;;26.80;47.90;;;;;;4937044;29;20034;-79
2022/07/03 12:31:26;;;;;;;1.08;0.40;;;27.00;47.80;;;;;;4928052;29;20116;-79
2022/07/03 12:33:53;;;;;;;0.40;0.20;;;27.40;47.50;;;;;;4916133;29;20208;-80
2022/07/03 12:36:19;;;;;;;0.80;0.28;;;27.70;47.10;;;;;;4935876;29;20024;-83
2022/07/03 12:38:56;;;;;;;1.10;0.63;;;28.10;46.60;;;;;;4906762;29;20031;-82
2022/07/03 12:41:23;;;;;;;0.32;0.22;;;28.40;46.00;;;;;;4920160;29;20027;-87
2022/07/03 12:43:50;;;;;;;4.07;0.65;;;28.70;45.70;;;;;;4922500;29;20044;-79
2022/07/03 12:46:19;;;;;;;1.75;0.85;;;28.90;45.30;;;;;;4936210;29;20032;-81
2022/07/03 12:48:56;;;;;;;1.17;0.43;;;29.00;45.00;;;;;;4938653;29;20425;-82
2022/07/03 12:51:53;;;;;;;2.83;0.70;;;29.10;44.80;;;;;;4919499;29;20450;-82
2022/07/03 12:54:35;;;;;;;1.17;0.50;;;29.10;44.50;;;;;;4938072;29;20043;-76
2022/07/03 13:00:11;;;;;;;1.85;0.50;;;29.30;44.80;;;;;;4916020;29;20043;-80
2022/07/03 13:02:39;;;;;;;0.85;0.50;;;29.70;44.20;;;;;;4930816;29;20042;-77
2022/07/03 13:05:19;;;;;;;1.77;0.55;;;29.90;44.00;;;;;;4919169;29;20118;-80
2022/07/03 13:07:48;;;;;;;3.33;0.50;;;29.80;43.40;;;;;;4919443;29;20339;-77
2022/07/03 13:10:15;;;;;;;1.45;0.52;;;29.60;43.70;;;;;;4943642;29;20031;-77
2022/07/03 13:13:11;;;;;;;1.08;0.70;;;29.50;44.20;;;;;;4910359;29;20125;-78
2022/07/03 13:15:37;;;;;;;1.92;0.90;;;29.50;43.60;;;;;;4943785;28;20043;-79
2022/07/03 13:18:03;;;;;;;0.90;0.55;;;29.50;43.70;;;;;;4948344;29;20658;-82
2022/07/03 13:20:31;;;;;;;2.85;0.75;;;29.40;43.30;;;;;;4943744;29;20069;-80